EYPA/PLQ METAR and TAF weather

Enter ICAO airport designator
Station Type Date Time Source
EYPA METAR 2019/04/19 22:20 UTC NOAA

EYPA 192220Z AUTO 35002KT 9999 BKN230/// 04/00 Q1032


Station Type Date Time Source
EYPA Decoded METAR 2019/04/19 22:20 UTC NOAA

Palanga Intl., Lithuania (EYPA) 55-55-12N 021-03E
Apr 19, 2019 - 06:20 PM EDT / 2019.04.19 2220 UTC
Wind: from the N (350 degrees) at 2 MPH (2 KT):0
Visibility: greater than 7 mile(s):0
Sky conditions: mostly cloudy
Temperature: 39 F (4 C)
Dew Point: 32 F (0 C)
Relative Humidity: 75%
Pressure (altimeter): 30.47 in. Hg (1032 hPa)
ob: EYPA 192220Z AUTO 35002KT 9999 BKN230/// 04/00 Q1032
cycle: 22

Station Type Date Time Source
EYPA TAF 2019/04/19 18:03 UTC NOAA

TAF EYPA 191701Z 1918/2018 VRB04KT 9000 NSC
TEMPO 2009/2018 34014KT

Example: see airport list